createdAt,value
2017-05-29T00:00:13.002Z,1003.32
2017-05-29T00:00:54.361Z,1003.27
2017-05-29T00:01:34.848Z,1003.29
2017-05-29T00:02:15.373Z,1003.26
2017-05-29T00:02:55.853Z,1003.27
2017-05-29T00:03:36.350Z,1003.27
2017-05-29T00:04:16.851Z,1003.24
2017-05-29T00:04:57.355Z,1003.23
2017-05-29T00:06:54.994Z,1003.25
2017-05-29T00:07:35.491Z,1003.22
2017-05-29T00:08:15.981Z,1003.23
2017-05-29T00:08:56.477Z,1003.25
2017-05-29T00:09:36.972Z,1003.28
2017-05-29T00:10:17.455Z,1003.27
2017-05-29T00:10:57.956Z,1003.28
2017-05-29T00:11:38.450Z,1003.26
2017-05-29T00:12:18.942Z,1003.26
2017-05-29T00:12:59.429Z,1003.26
2017-05-29T00:13:39.932Z,1003.25
2017-05-29T00:14:20.441Z,1003.3
2017-05-29T00:15:00.927Z,1003.25
2017-05-29T00:15:41.417Z,1003.3
2017-05-29T00:16:21.919Z,1003.28
2017-05-29T00:17:02.410Z,1003.27
2017-05-29T00:17:42.907Z,1003.3
2017-05-29T00:18:23.398Z,1003.27
2017-05-29T00:19:03.921Z,1003.25
2017-05-29T00:19:44.418Z,1003.29
2017-05-29T00:20:24.930Z,1003.3
2017-05-29T00:21:05.413Z,1003.28
2017-05-29T00:21:45.935Z,1003.29
2017-05-29T00:22:26.419Z,1003.32
2017-05-29T00:24:18.977Z,1003.29
2017-05-29T00:24:59.461Z,1003.3
2017-05-29T00:25:39.948Z,1003.3
2017-05-29T00:26:21.168Z,1003.31
2017-05-29T00:27:01.694Z,1003.29
2017-05-29T00:27:42.249Z,1003.28
2017-05-29T00:28:23.267Z,1003.28
2017-05-29T00:29:03.777Z,1003.27
2017-05-29T00:29:44.279Z,1003.28
2017-05-29T00:30:24.746Z,1003.28
2017-05-29T00:31:05.246Z,1003.31
2017-05-29T00:31:45.733Z,1003.26
2017-05-29T00:32:26.226Z,1003.27
2017-05-29T00:33:06.730Z,1003.27
2017-05-29T00:33:47.208Z,1003.28
2017-05-29T00:34:27.713Z,1003.29
2017-05-29T00:35:08.204Z,1003.28
2017-05-29T00:35:48.703Z,1003.29
2017-05-29T00:36:29.220Z,1003.27
2017-05-29T00:37:09.723Z,1003.26
2017-05-29T00:37:50.857Z,1003.24
2017-05-29T00:38:31.341Z,1003.26
2017-05-29T00:39:12.348Z,1003.23
2017-05-29T00:39:52.847Z,1003.23
2017-05-29T00:40:33.291Z,1003.22
2017-05-29T00:43:01.295Z,1003.17
2017-05-29T00:43:41.733Z,1003.13
2017-05-29T00:44:22.221Z,1003.14
2017-05-29T00:45:02.696Z,1003.18
2017-05-29T00:45:43.784Z,1003.13
2017-05-29T00:46:25.131Z,1003.16
2017-05-29T00:47:05.610Z,1003.15
2017-05-29T00:47:46.109Z,1003.16
2017-05-29T00:48:26.604Z,1003.18
2017-05-29T00:49:07.086Z,1003.19
2017-05-29T00:49:47.589Z,1003.2
2017-05-29T00:50:28.085Z,1003.22
2017-05-29T00:52:45.941Z,1003.23
2017-05-29T00:53:26.396Z,1003.25
2017-05-29T00:54:06.859Z,1003.25
2017-05-29T00:54:47.249Z,1003.27
2017-05-29T00:55:27.739Z,1003.29
2017-05-29T00:56:08.262Z,1003.27
2017-05-29T00:56:48.716Z,1003.24
2017-05-29T00:57:29.198Z,1003.25
2017-05-29T00:58:09.657Z,1003.21
2017-05-29T00:58:50.151Z,1003.19
2017-05-29T00:59:30.611Z,1003.21
2017-05-29T01:00:11.113Z,1003.22
2017-05-29T01:00:52.156Z,1003.2
2017-05-29T01:01:32.619Z,1003.16
2017-05-29T01:02:13.094Z,1003.2
2017-05-29T01:04:10.767Z,1003.18
2017-05-29T01:04:52.042Z,1003.13
2017-05-29T01:05:32.548Z,1003.12
2017-05-29T01:06:13.038Z,1003.16
2017-05-29T01:06:54.046Z,1003.14
2017-05-29T01:07:34.534Z,1003.13
2017-05-29T01:08:15.041Z,1003.14
2017-05-29T01:08:55.535Z,1003.12
2017-05-29T01:09:36.546Z,1003.11
2017-05-29T01:10:17.044Z,1003.15
2017-05-29T01:10:57.525Z,1003.13
2017-05-29T01:11:38.946Z,1003.15
2017-05-29T01:12:19.445Z,1003.17
2017-05-29T01:12:59.929Z,1003.17
2017-05-29T01:13:40.428Z,1003.16
2017-05-29T01:14:20.926Z,1003.15
2017-05-29T01:15:01.429Z,1003.19
2017-05-29T01:15:41.913Z,1003.2
2017-05-29T01:16:22.402Z,1003.18
2017-05-29T01:17:02.894Z,1003.19
2017-05-29T01:17:43.389Z,1003.2
2017-05-29T01:18:23.927Z,1003.18
2017-05-29T01:19:04.439Z,1003.19
2017-05-29T01:19:44.923Z,1003.18
2017-05-29T01:20:25.421Z,1003.22
2017-05-29T01:21:05.922Z,1003.14
2017-05-29T01:21:47.335Z,1003.19
2017-05-29T01:22:27.817Z,1003.19
2017-05-29T01:23:08.311Z,1003.2
2017-05-29T01:23:48.820Z,1003.17
2017-05-29T01:25:41.363Z,1003.13
2017-05-29T01:26:21.867Z,1003.14
2017-05-29T01:28:49.897Z,1003.12
2017-05-29T01:29:30.380Z,1003.1
2017-05-29T01:30:10.904Z,1003.11
2017-05-29T01:30:51.400Z,1003.13
2017-05-29T01:31:32.603Z,1003.1
2017-05-29T01:32:13.106Z,1003.07
2017-05-29T01:32:53.613Z,1003.06
2017-05-29T01:33:34.095Z,1003.09
2017-05-29T01:34:14.589Z,1003.05
2017-05-29T01:34:55.074Z,1003.06
2017-05-29T01:35:35.571Z,1003.07
2017-05-29T01:36:16.970Z,1003.05
2017-05-29T01:36:57.462Z,1003.06
2017-05-29T01:37:38.692Z,1003.04
2017-05-29T01:38:19.197Z,1003.05
2017-05-29T01:38:59.740Z,1003.04
2017-05-29T01:39:40.208Z,1003.04
2017-05-29T01:41:32.775Z,1003.03
2017-05-29T01:42:13.250Z,1003.03
2017-05-29T01:42:53.753Z,1003.03
2017-05-29T01:43:34.247Z,1003.03
2017-05-29T01:45:31.857Z,1003.03
2017-05-29T01:46:12.363Z,1003.05
2017-05-29T01:46:52.848Z,1003.03
2017-05-29T01:47:34.070Z,1002.98
2017-05-29T01:48:14.580Z,1002.99
2017-05-29T01:48:55.069Z,1003
2017-05-29T01:49:35.551Z,1003.03
2017-05-29T01:50:16.040Z,1003.02
2017-05-29T01:50:56.528Z,1003.01
2017-05-29T01:51:37.001Z,1003.04
2017-05-29T01:52:17.479Z,1003.01
2017-05-29T01:52:57.973Z,1002.98
2017-05-29T01:53:38.457Z,1003.06
2017-05-29T01:54:18.935Z,1003.04
2017-05-29T01:54:59.439Z,1003.02
2017-05-29T01:55:39.934Z,1003.03
2017-05-29T01:56:20.410Z,1003.02
2017-05-29T01:57:00.895Z,1003.06
2017-05-29T01:57:41.407Z,1003.03
2017-05-29T01:58:21.893Z,1003.06
2017-05-29T01:59:02.424Z,1003.09
2017-05-29T01:59:42.906Z,1003.04
2017-05-29T02:00:23.421Z,1003.08
2017-05-29T02:01:03.902Z,1003.05
2017-05-29T02:01:44.383Z,1003.07
2017-05-29T02:02:24.888Z,1003.07
2017-05-29T02:03:05.379Z,1003.04
2017-05-29T02:05:23.254Z,1003.1
2017-05-29T02:06:03.680Z,1003.1
2017-05-29T02:06:44.146Z,1003.09
2017-05-29T02:07:24.593Z,1003.12
2017-05-29T02:08:05.015Z,1003.09
2017-05-29T02:08:45.455Z,1003.09
2017-05-29T02:09:25.971Z,1003.1
2017-05-29T02:10:06.444Z,1003.13
2017-05-29T02:10:46.861Z,1003.13
2017-05-29T02:11:27.328Z,1003.13
2017-05-29T02:12:07.849Z,1003.12
2017-05-29T02:12:48.302Z,1003.14
2017-05-29T02:13:28.755Z,1003.12
2017-05-29T02:14:09.228Z,1003.09
2017-05-29T02:14:49.731Z,1003.14
2017-05-29T02:15:30.198Z,1003.13
2017-05-29T02:16:10.707Z,1003.11
2017-05-29T02:16:51.895Z,1003.13
2017-05-29T02:17:32.385Z,1003.11
2017-05-29T02:18:12.790Z,1003.14
2017-05-29T02:18:53.256Z,1003.14
2017-05-29T02:19:33.740Z,1003.14
2017-05-29T02:20:14.223Z,1003.14
2017-05-29T02:20:54.694Z,1003.16
2017-05-29T02:21:35.196Z,1003.16
2017-05-29T02:22:15.641Z,1003.15
2017-05-29T02:22:56.109Z,1003.13
2017-05-29T02:23:36.563Z,1003.16
2017-05-29T02:24:17.799Z,1003.14
2017-05-29T02:24:58.272Z,1003.15
2017-05-29T02:25:38.710Z,1003.13
2017-05-29T02:26:19.200Z,1003.12
2017-05-29T02:26:59.665Z,1003.16
2017-05-29T02:27:40.160Z,1003.16
2017-05-29T02:28:20.595Z,1003.15
2017-05-29T02:29:01.098Z,1003.13
2017-05-29T02:29:42.488Z,1003.15
2017-05-29T02:30:22.946Z,1003.12
2017-05-29T02:31:03.975Z,1003.13
2017-05-29T02:31:44.411Z,1003.11
2017-05-29T02:32:24.863Z,1003.13
2017-05-29T02:33:05.358Z,1003.09
2017-05-29T02:33:45.794Z,1003.11
2017-05-29T02:34:26.236Z,1003.14
2017-05-29T02:35:06.666Z,1003.15
2017-05-29T02:35:47.109Z,1003.13
2017-05-29T02:36:27.610Z,1003.14
2017-05-29T02:37:08.044Z,1003.11
2017-05-29T02:37:48.461Z,1003.12
2017-05-29T02:38:29.638Z,1003.14
2017-05-29T02:39:10.161Z,1003.1
2017-05-29T02:39:50.625Z,1003.12
2017-05-29T02:40:31.072Z,1003.12
2017-05-29T02:41:11.499Z,1003.11
2017-05-29T02:41:51.931Z,1003.12
2017-05-29T02:42:32.383Z,1003.15
2017-05-29T02:43:12.832Z,1003.11
2017-05-29T02:43:53.367Z,1003.12
2017-05-29T02:44:33.788Z,1003.16
2017-05-29T02:45:14.289Z,1003.13
2017-05-29T02:45:54.730Z,1003.11
2017-05-29T02:46:35.207Z,1003.08
2017-05-29T02:47:15.669Z,1003.07
2017-05-29T02:47:56.151Z,1003.08
2017-05-29T02:48:36.581Z,1003.08
2017-05-29T02:49:17.031Z,1003.08
2017-05-29T02:49:57.482Z,1003.06
2017-05-29T02:50:37.939Z,1003.1
2017-05-29T02:51:18.344Z,1003.07
2017-05-29T02:51:58.803Z,1003.08
2017-05-29T02:52:39.347Z,1003.08
2017-05-29T02:53:19.816Z,1003.08
2017-05-29T02:54:00.384Z,1003.07
2017-05-29T02:54:40.770Z,1003.1
2017-05-29T02:55:21.893Z,1003.08
2017-05-29T02:56:02.365Z,1003.08
2017-05-29T02:56:43.010Z,1003.05
2017-05-29T02:57:23.445Z,1003.08
2017-05-29T02:58:04.019Z,1003.06
2017-05-29T02:58:45.278Z,1003.04
2017-05-29T02:59:25.792Z,1003.06
2017-05-29T03:00:06.220Z,1003.02
2017-05-29T03:00:46.661Z,1003.05
2017-05-29T03:01:27.944Z,1003.05
2017-05-29T03:02:08.326Z,1003.07
2017-05-29T03:02:48.779Z,1003.1
2017-05-29T03:03:29.235Z,1003.08
2017-05-29T03:04:09.683Z,1003.11
2017-05-29T03:04:50.119Z,1003.08
2017-05-29T03:05:30.614Z,1003.09
2017-05-29T03:06:11.082Z,1003.1
2017-05-29T03:06:51.475Z,1003.13
2017-05-29T03:07:31.990Z,1003.13
2017-05-29T03:08:12.453Z,1003.12
2017-05-29T03:08:52.901Z,1003.15
2017-05-29T03:09:33.398Z,1003.16
2017-05-29T03:10:14.221Z,1003.18
2017-05-29T03:10:55.603Z,1003.14
2017-05-29T03:11:36.062Z,1003.16
2017-05-29T03:12:16.530Z,1003.12
2017-05-29T03:12:56.926Z,1003.12
2017-05-29T03:13:37.349Z,1003.11
2017-05-29T03:14:17.773Z,1003.15
2017-05-29T03:14:58.203Z,1003.17
2017-05-29T03:15:38.652Z,1003.13
2017-05-29T03:16:20.037Z,1003.13
2017-05-29T03:17:00.516Z,1003.13
2017-05-29T03:17:40.957Z,1003.15
2017-05-29T03:18:21.385Z,1003.15
2017-05-29T03:19:01.932Z,1003.18
2017-05-29T03:19:42.386Z,1003.18
2017-05-29T03:20:23.655Z,1003.2
2017-05-29T03:21:04.109Z,1003.18
2017-05-29T03:21:44.557Z,1003.19
2017-05-29T03:22:25.037Z,1003.19
2017-05-29T03:23:05.488Z,1003.2
2017-05-29T03:23:45.954Z,1003.22
2017-05-29T03:24:26.404Z,1003.14
2017-05-29T03:25:06.852Z,1003.18
2017-05-29T03:25:47.298Z,1003.2
2017-05-29T03:26:27.765Z,1003.23
2017-05-29T03:27:08.223Z,1003.21
2017-05-29T03:27:48.651Z,1003.27
2017-05-29T03:28:29.132Z,1003.27
2017-05-29T03:29:09.546Z,1003.29
2017-05-29T03:29:50.024Z,1003.28
2017-05-29T03:30:30.476Z,1003.34
2017-05-29T03:32:23.045Z,1003.33
2017-05-29T03:33:03.534Z,1003.35
2017-05-29T03:33:44.033Z,1003.32
2017-05-29T03:34:24.502Z,1003.33
2017-05-29T03:35:05.003Z,1003.35
2017-05-29T03:35:45.489Z,1003.33
2017-05-29T03:36:26.853Z,1003.37
2017-05-29T03:37:07.277Z,1003.36
2017-05-29T03:38:59.831Z,1003.37
2017-05-29T03:39:40.317Z,1003.4
2017-05-29T03:40:20.813Z,1003.41
2017-05-29T03:42:38.627Z,1003.43
2017-05-29T03:43:19.133Z,1003.42
2017-05-29T03:43:59.614Z,1003.48
2017-05-29T03:44:40.041Z,1003.46
2017-05-29T03:45:20.450Z,1003.45
2017-05-29T03:46:00.971Z,1003.49
2017-05-29T03:46:41.430Z,1003.48
2017-05-29T03:47:21.972Z,1003.49
2017-05-29T03:49:40.100Z,1003.5
2017-05-29T03:50:20.607Z,1003.53
2017-05-29T03:51:01.073Z,1003.52
2017-05-29T03:51:41.573Z,1003.49
2017-05-29T03:52:22.076Z,1003.52
2017-05-29T03:53:03.244Z,1003.51
2017-05-29T03:53:44.481Z,1003.49
2017-05-29T03:54:25.582Z,1003.51
2017-05-29T03:55:06.072Z,1003.5
2017-05-29T03:55:46.554Z,1003.51
2017-05-29T03:56:27.039Z,1003.5
2017-05-29T03:57:08.477Z,1003.5
2017-05-29T03:57:48.981Z,1003.47
2017-05-29T03:58:29.493Z,1003.5
2017-05-29T03:59:10.746Z,1003.47
2017-05-29T03:59:51.240Z,1003.48
2017-05-29T04:00:31.732Z,1003.47
2017-05-29T04:01:12.229Z,1003.45
2017-05-29T04:01:52.717Z,1003.48
2017-05-29T04:02:33.210Z,1003.49
2017-05-29T04:03:13.710Z,1003.46
2017-05-29T04:03:54.191Z,1003.45
2017-05-29T04:04:34.694Z,1003.44
2017-05-29T04:05:15.186Z,1003.44
2017-05-29T04:05:55.669Z,1003.45
2017-05-29T04:06:36.173Z,1003.46
2017-05-29T04:07:16.664Z,1003.47
2017-05-29T04:07:57.853Z,1003.45
2017-05-29T04:08:38.348Z,1003.44
2017-05-29T04:09:18.854Z,1003.47
2017-05-29T04:09:59.333Z,1003.46
2017-05-29T04:10:39.867Z,1003.42
2017-05-29T04:11:20.344Z,1003.43
2017-05-29T04:12:01.500Z,1003.45
2017-05-29T04:12:42.022Z,1003.45
2017-05-29T04:13:22.516Z,1003.46
2017-05-29T04:14:04.001Z,1003.47
2017-05-29T04:14:44.491Z,1003.49
2017-05-29T04:15:24.996Z,1003.5
2017-05-29T04:16:05.481Z,1003.48
2017-05-29T04:16:45.966Z,1003.49
2017-05-29T04:17:26.472Z,1003.51
2017-05-29T04:18:06.964Z,1003.52
2017-05-29T04:18:47.455Z,1003.5
2017-05-29T04:19:27.944Z,1003.52
2017-05-29T04:20:08.442Z,1003.55
2017-05-29T04:20:48.933Z,1003.55
2017-05-29T04:21:29.428Z,1003.54
2017-05-29T04:22:09.922Z,1003.54
2017-05-29T04:22:50.415Z,1003.54
2017-05-29T04:23:30.899Z,1003.55
2017-05-29T04:24:11.392Z,1003.54
2017-05-29T04:24:51.875Z,1003.54
2017-05-29T04:25:32.389Z,1003.56
2017-05-29T04:26:12.869Z,1003.53
2017-05-29T04:26:53.357Z,1003.56
2017-05-29T04:27:33.860Z,1003.52
2017-05-29T04:28:14.339Z,1003.54
2017-05-29T04:28:55.488Z,1003.56
2017-05-29T04:29:35.981Z,1003.55
2017-05-29T04:30:16.478Z,1003.53
2017-05-29T04:30:56.965Z,1003.53
2017-05-29T04:31:37.458Z,1003.57
2017-05-29T04:32:17.941Z,1003.53
2017-05-29T04:32:58.437Z,1003.56
2017-05-29T04:33:38.931Z,1003.56
2017-05-29T04:34:20.103Z,1003.57
2017-05-29T04:35:00.587Z,1003.55
2017-05-29T04:35:41.647Z,1003.58
2017-05-29T04:36:22.106Z,1003.55
2017-05-29T04:37:02.636Z,1003.55
2017-05-29T04:39:15.340Z,1003.57
2017-05-29T04:39:55.833Z,1003.58
2017-05-29T04:40:36.319Z,1003.57
2017-05-29T04:41:16.827Z,1003.62
2017-05-29T04:41:57.285Z,1003.59
2017-05-29T04:42:37.771Z,1003.59
2017-05-29T04:43:18.842Z,1003.61
2017-05-29T04:43:59.332Z,1003.61
2017-05-29T04:44:39.818Z,1003.61
2017-05-29T04:45:20.316Z,1003.6
2017-05-29T04:46:01.786Z,1003.6
2017-05-29T04:46:42.249Z,1003.6
2017-05-29T04:47:22.765Z,1003.6
2017-05-29T04:48:03.186Z,1003.62
2017-05-29T04:48:43.679Z,1003.6
2017-05-29T04:49:24.172Z,1003.6
2017-05-29T04:50:04.664Z,1003.63
2017-05-29T04:50:45.159Z,1003.63
2017-05-29T04:51:25.658Z,1003.67
2017-05-29T04:52:06.148Z,1003.66
2017-05-29T04:52:46.641Z,1003.68
2017-05-29T04:53:27.134Z,1003.68
2017-05-29T04:54:07.629Z,1003.67
2017-05-29T04:54:48.129Z,1003.71
2017-05-29T04:55:29.156Z,1003.67
2017-05-29T04:56:09.662Z,1003.72
2017-05-29T04:56:50.837Z,1003.67
2017-05-29T04:57:31.323Z,1003.68
2017-05-29T04:58:11.816Z,1003.71
2017-05-29T04:58:52.306Z,1003.72
2017-05-29T04:59:32.804Z,1003.71
2017-05-29T05:00:13.294Z,1003.71
2017-05-29T05:00:53.800Z,1003.72
2017-05-29T05:01:34.282Z,1003.68
2017-05-29T05:02:14.770Z,1003.68
2017-05-29T05:02:55.277Z,1003.72
2017-05-29T05:03:36.352Z,1003.71
2017-05-29T05:04:16.844Z,1003.72
2017-05-29T05:04:57.327Z,1003.71
2017-05-29T05:05:38.342Z,1003.72
2017-05-29T05:06:18.815Z,1003.72
2017-05-29T05:06:59.306Z,1003.69
2017-05-29T05:07:39.788Z,1003.7
2017-05-29T05:08:20.260Z,1003.71
2017-05-29T05:09:00.755Z,1003.73
2017-05-29T05:09:41.244Z,1003.71
2017-05-29T05:10:21.730Z,1003.72
2017-05-29T05:11:02.225Z,1003.77
2017-05-29T05:11:42.729Z,1003.76
2017-05-29T05:12:23.193Z,1003.71
2017-05-29T05:13:03.669Z,1003.75
2017-05-29T05:13:44.176Z,1003.73
2017-05-29T05:14:24.669Z,1003.76
2017-05-29T05:15:06.073Z,1003.78
2017-05-29T05:15:46.567Z,1003.76
2017-05-29T05:16:27.053Z,1003.82
2017-05-29T05:17:07.538Z,1003.78
2017-05-29T05:17:48.032Z,1003.76
2017-05-29T05:18:28.535Z,1003.83
2017-05-29T05:19:09.014Z,1003.8
2017-05-29T05:19:49.495Z,1003.82
2017-05-29T05:20:30.008Z,1003.81
2017-05-29T05:22:57.929Z,1003.77
2017-05-29T05:23:38.441Z,1003.77
2017-05-29T05:24:18.901Z,1003.79
2017-05-29T05:24:59.397Z,1003.78
2017-05-29T05:25:39.864Z,1003.76
2017-05-29T05:26:20.355Z,1003.75
2017-05-29T05:27:00.838Z,1003.79
2017-05-29T05:27:41.326Z,1003.79
2017-05-29T05:28:21.818Z,1003.79
2017-05-29T05:29:02.316Z,1003.77
2017-05-29T05:29:42.861Z,1003.73
2017-05-29T05:30:23.429Z,1003.78
2017-05-29T05:31:03.987Z,1003.72
2017-05-29T05:31:44.598Z,1003.73
2017-05-29T05:32:25.126Z,1003.71
2017-05-29T05:33:05.658Z,1003.71
2017-05-29T05:33:46.163Z,1003.74
2017-05-29T05:34:26.641Z,1003.7
2017-05-29T05:35:07.121Z,1003.72
2017-05-29T05:35:47.648Z,1003.71
2017-05-29T05:36:28.177Z,1003.68
2017-05-29T05:37:09.245Z,1003.69
2017-05-29T05:37:49.752Z,1003.69
2017-05-29T05:38:30.229Z,1003.73
2017-05-29T05:39:10.716Z,1003.73
2017-05-29T05:39:51.224Z,1003.73
2017-05-29T05:40:31.701Z,1003.69
2017-05-29T05:41:12.185Z,1003.73
2017-05-29T05:41:52.687Z,1003.76
2017-05-29T05:42:33.175Z,1003.73
2017-05-29T05:43:13.710Z,1003.75
2017-05-29T05:43:54.213Z,1003.79
2017-05-29T05:44:34.722Z,1003.72
2017-05-29T05:45:15.202Z,1003.76
2017-05-29T05:45:55.696Z,1003.74
2017-05-29T05:46:36.205Z,1003.77
2017-05-29T05:47:16.724Z,1003.77
2017-05-29T05:47:58.021Z,1003.77
2017-05-29T05:48:38.509Z,1003.75
2017-05-29T05:49:19.658Z,1003.78
2017-05-29T05:50:00.151Z,1003.79
2017-05-29T05:50:40.634Z,1003.82
2017-05-29T05:51:21.096Z,1003.82
2017-05-29T05:52:02.249Z,1003.82
2017-05-29T05:52:42.731Z,1003.81
2017-05-29T05:53:23.243Z,1003.84
2017-05-29T05:54:03.725Z,1003.82
2017-05-29T05:54:44.217Z,1003.85
2017-05-29T05:55:24.719Z,1003.79
2017-05-29T05:56:05.203Z,1003.81
2017-05-29T05:56:45.712Z,1003.81
2017-05-29T05:57:26.198Z,1003.82
2017-05-29T05:58:06.687Z,1003.82
2017-05-29T05:58:47.202Z,1003.79
2017-05-29T05:59:27.674Z,1003.84
2017-05-29T06:00:08.186Z,1003.82
2017-05-29T06:00:48.690Z,1003.85
2017-05-29T06:01:29.181Z,1003.87
2017-05-29T06:02:10.355Z,1003.85
2017-05-29T06:02:50.865Z,1003.85
2017-05-29T06:03:31.341Z,1003.82
2017-05-29T06:04:11.800Z,1003.86
2017-05-29T06:04:52.858Z,1003.84
2017-05-29T06:05:34.168Z,1003.84
2017-05-29T06:07:31.844Z,1003.83
2017-05-29T06:08:12.410Z,1003.81
2017-05-29T06:08:52.914Z,1003.77
2017-05-29T06:09:33.439Z,1003.8
2017-05-29T06:10:13.916Z,1003.79
2017-05-29T06:10:55.093Z,1003.83
2017-05-29T06:11:35.620Z,1003.82
2017-05-29T06:12:16.104Z,1003.83
2017-05-29T06:14:29.018Z,1003.84
2017-05-29T06:15:09.506Z,1003.79
2017-05-29T06:15:49.978Z,1003.84
2017-05-29T06:16:30.420Z,1003.86
2017-05-29T06:17:10.884Z,1003.83
2017-05-29T06:17:51.402Z,1003.88
2017-05-29T06:18:31.894Z,1003.86
2017-05-29T06:19:12.365Z,1003.86
2017-05-29T06:21:25.172Z,1003.81
2017-05-29T06:22:05.665Z,1003.82
2017-05-29T06:22:46.181Z,1003.82
2017-05-29T06:23:26.665Z,1003.8
2017-05-29T06:24:07.151Z,1003.82
2017-05-29T06:25:59.736Z,1003.81
2017-05-29T06:26:40.241Z,1003.83
2017-05-29T06:27:20.698Z,1003.8
2017-05-29T06:28:01.192Z,1003.8
2017-05-29T06:28:42.431Z,1003.81
2017-05-29T06:29:22.924Z,1003.77
2017-05-29T06:30:03.424Z,1003.8
2017-05-29T06:30:43.910Z,1003.79
2017-05-29T06:31:24.408Z,1003.79
2017-05-29T06:32:04.910Z,1003.84
2017-05-29T06:32:45.409Z,1003.81
2017-05-29T06:33:25.903Z,1003.81
2017-05-29T06:34:06.403Z,1003.86
2017-05-29T06:34:46.907Z,1003.9
2017-05-29T06:35:27.425Z,1003.93
2017-05-29T06:36:07.941Z,1003.91
2017-05-29T06:36:48.456Z,1003.93
2017-05-29T06:37:28.943Z,1003.93
2017-05-29T06:38:11.022Z,1003.96
2017-05-29T06:38:51.528Z,1004
2017-05-29T06:39:32.024Z,1003.97
2017-05-29T06:40:13.420Z,1003.92
2017-05-29T06:40:53.908Z,1003.96
2017-05-29T06:41:34.413Z,1003.96
2017-05-29T06:42:14.905Z,1003.94
2017-05-29T06:42:55.454Z,1003.93
2017-05-29T06:43:35.941Z,1003.92
2017-05-29T06:44:16.452Z,1003.9
2017-05-29T06:44:56.983Z,1003.92
2017-05-29T06:45:37.475Z,1003.88
2017-05-29T06:46:17.965Z,1003.88
2017-05-29T06:46:58.459Z,1003.93
2017-05-29T06:47:39.004Z,1003.9
2017-05-29T06:48:19.488Z,1003.92
2017-05-29T06:48:59.974Z,1003.91
2017-05-29T06:49:40.522Z,1003.93
2017-05-29T06:50:21.008Z,1003.89
2017-05-29T06:51:01.501Z,1003.9
2017-05-29T06:51:42.064Z,1003.88
2017-05-29T06:52:22.586Z,1003.88
2017-05-29T06:53:04.574Z,1003.88
2017-05-29T06:53:45.225Z,1003.87
2017-05-29T06:54:25.802Z,1003.9
2017-05-29T06:55:06.369Z,1003.9
2017-05-29T06:55:46.976Z,1003.88
2017-05-29T06:56:27.528Z,1003.92
2017-05-29T06:57:08.037Z,1003.89
2017-05-29T06:57:49.206Z,1003.91
2017-05-29T06:58:29.722Z,1003.92
2017-05-29T06:59:10.271Z,1003.94
2017-05-29T06:59:50.763Z,1003.94
2017-05-29T07:00:31.268Z,1003.94
2017-05-29T07:01:11.801Z,1003.96
2017-05-29T07:01:52.286Z,1003.95
2017-05-29T07:02:32.807Z,1003.92
2017-05-29T07:03:13.309Z,1003.88
2017-05-29T07:03:53.798Z,1003.9
2017-05-29T07:04:34.338Z,1003.89
2017-05-29T07:05:14.861Z,1003.88
2017-05-29T07:05:55.445Z,1003.92
2017-05-29T07:06:35.874Z,1003.9
2017-05-29T07:07:16.364Z,1003.88
2017-05-29T07:07:56.872Z,1003.89
2017-05-29T07:08:37.373Z,1003.89
2017-05-29T07:09:18.541Z,1003.94
2017-05-29T07:09:59.089Z,1003.94
2017-05-29T07:10:39.575Z,1003.92
2017-05-29T07:11:20.094Z,1003.91
2017-05-29T07:12:01.555Z,1003.93
2017-05-29T07:12:42.098Z,1003.96
2017-05-29T07:13:22.617Z,1003.9
2017-05-29T07:14:03.136Z,1003.9
2017-05-29T07:14:43.632Z,1003.91
2017-05-29T07:15:24.145Z,1003.92
2017-05-29T07:16:04.635Z,1003.86
2017-05-29T07:18:32.649Z,1003.88
2017-05-29T07:19:13.111Z,1003.88
2017-05-29T07:19:53.605Z,1003.89
2017-05-29T07:20:34.130Z,1003.93
2017-05-29T07:21:14.625Z,1003.87
2017-05-29T07:21:55.089Z,1003.84
2017-05-29T07:22:35.587Z,1003.84
2017-05-29T07:23:16.074Z,1003.84
2017-05-29T07:23:56.573Z,1003.83
2017-05-29T07:24:37.064Z,1003.81
2017-05-29T07:25:17.554Z,1003.82
2017-05-29T07:25:58.051Z,1003.79
2017-05-29T07:28:10.888Z,1003.85
2017-05-29T07:28:51.413Z,1003.86
2017-05-29T07:29:31.923Z,1003.85
2017-05-29T07:30:12.451Z,1003.83
2017-05-29T07:30:52.983Z,1003.81
2017-05-29T07:31:33.461Z,1003.84
2017-05-29T07:32:13.944Z,1003.8
2017-05-29T07:32:54.419Z,1003.8
2017-05-29T07:33:34.898Z,1003.83
2017-05-29T07:34:15.378Z,1003.81
2017-05-29T07:34:55.847Z,1003.8
2017-05-29T07:35:36.415Z,1003.81
2017-05-29T07:36:16.934Z,1003.8
2017-05-29T07:36:58.069Z,1003.75
2017-05-29T07:37:38.586Z,1003.78
2017-05-29T07:38:19.091Z,1003.78
2017-05-29T07:38:59.577Z,1003.79
2017-05-29T07:40:58.018Z,1003.8
2017-05-29T07:41:38.573Z,1003.8
2017-05-29T07:42:19.075Z,1003.79
2017-05-29T07:42:59.600Z,1003.8
2017-05-29T07:43:40.082Z,1003.8
2017-05-29T07:44:20.598Z,1003.78
2017-05-29T07:45:01.102Z,1003.81
2017-05-29T07:45:41.594Z,1003.82
2017-05-29T07:46:22.167Z,1003.75
2017-05-29T07:48:14.769Z,1003.71
2017-05-29T07:48:55.215Z,1003.75
2017-05-29T07:49:35.701Z,1003.71
2017-05-29T07:50:16.178Z,1003.71
2017-05-29T07:50:56.717Z,1003.67
2017-05-29T07:51:37.216Z,1003.68
2017-05-29T07:52:17.780Z,1003.68
2017-05-29T07:52:58.291Z,1003.67
2017-05-29T07:53:38.846Z,1003.72
2017-05-29T07:54:19.384Z,1003.71
2017-05-29T07:54:59.905Z,1003.71
2017-05-29T07:55:40.519Z,1003.71
2017-05-29T07:56:20.999Z,1003.72
2017-05-29T07:57:01.479Z,1003.76
2017-05-29T07:57:41.950Z,1003.75
2017-05-29T07:59:34.517Z,1003.74
2017-05-29T08:00:15.063Z,1003.69
2017-05-29T08:00:55.532Z,1003.71
2017-05-29T08:01:36.023Z,1003.66
2017-05-29T08:02:16.523Z,1003.68
2017-05-29T08:02:57.033Z,1003.7
2017-05-29T08:03:37.519Z,1003.68
2017-05-29T08:04:18.080Z,1003.71
2017-05-29T08:04:58.572Z,1003.7
2017-05-29T08:05:39.072Z,1003.67
2017-05-29T08:06:19.566Z,1003.69
2017-05-29T08:07:00.110Z,1003.62
2017-05-29T08:07:40.596Z,1003.63
2017-05-29T08:08:21.105Z,1003.63
2017-05-29T08:09:01.596Z,1003.63
2017-05-29T08:09:42.153Z,1003.6
2017-05-29T08:10:23.226Z,1003.62
2017-05-29T08:11:03.701Z,1003.61
2017-05-29T08:11:44.189Z,1003.6
2017-05-29T08:12:24.671Z,1003.62
2017-05-29T08:13:05.164Z,1003.61
2017-05-29T08:13:45.660Z,1003.64
2017-05-29T08:14:26.181Z,1003.63
2017-05-29T08:15:06.745Z,1003.63
2017-05-29T08:15:47.219Z,1003.64
2017-05-29T08:16:27.772Z,1003.69
2017-05-29T08:17:08.257Z,1003.71
2017-05-29T08:17:49.478Z,1003.66
2017-05-29T08:19:42.069Z,1003.67
2017-05-29T08:20:22.660Z,1003.67
2017-05-29T08:21:03.063Z,1003.7
2017-05-29T08:21:43.567Z,1003.67
2017-05-29T08:23:56.408Z,1003.67
2017-05-29T08:24:36.872Z,1003.71
2017-05-29T08:25:17.368Z,1003.68
2017-05-29T08:25:57.859Z,1003.66
2017-05-29T08:26:38.387Z,1003.64
2017-05-29T08:27:19.162Z,1003.65
2017-05-29T08:27:59.913Z,1003.66
2017-05-29T08:28:40.420Z,1003.67
2017-05-29T08:29:21.153Z,1003.67
2017-05-29T08:30:01.895Z,1003.64
2017-05-29T08:30:42.404Z,1003.59
2017-05-29T08:31:22.902Z,1003.6
2017-05-29T08:32:03.385Z,1003.6
2017-05-29T08:33:55.967Z,1003.57
2017-05-29T08:34:36.462Z,1003.57
2017-05-29T08:35:17.030Z,1003.57
2017-05-29T08:35:57.506Z,1003.58
2017-05-29T08:36:37.992Z,1003.59
2017-05-29T08:37:18.541Z,1003.61
2017-05-29T08:37:59.062Z,1003.58
2017-05-29T08:38:39.552Z,1003.57
2017-05-29T08:39:20.021Z,1003.59
2017-05-29T08:40:00.565Z,1003.57
2017-05-29T08:40:41.071Z,1003.59
2017-05-29T08:41:21.563Z,1003.61
2017-05-29T08:42:02.023Z,1003.57
2017-05-29T08:42:42.612Z,1003.59
2017-05-29T08:43:23.109Z,1003.53
2017-05-29T08:44:03.680Z,1003.53
2017-05-29T08:44:44.207Z,1003.53
2017-05-29T08:45:24.696Z,1003.52
2017-05-29T08:46:05.209Z,1003.56
2017-05-29T08:46:45.710Z,1003.53
2017-05-29T08:47:26.251Z,1003.53
2017-05-29T08:48:06.749Z,1003.55
2017-05-29T08:48:47.258Z,1003.51
2017-05-29T08:49:28.679Z,1003.54
2017-05-29T08:50:09.171Z,1003.57
2017-05-29T08:50:49.697Z,1003.56
2017-05-29T08:51:30.219Z,1003.6
2017-05-29T08:52:10.758Z,1003.61